sensor_id;sensor_type;location;lat;lon;timestamp;P1;durP1;ratioP1;P2;durP2;ratioP2
72761;SDS011;60886;55.034;73.150;2023-11-21T00:01:23;33.28;;;12.65;;
72761;SDS011;60886;55.034;73.150;2023-11-21T00:04:31;31.52;;;11.10;;
72761;SDS011;60886;55.034;73.150;2023-11-21T00:07:33;35.95;;;12.32;;
72761;SDS011;60886;55.034;73.150;2023-11-21T00:10:35;29.30;;;10.43;;
72761;SDS011;60886;55.034;73.150;2023-11-21T00:13:39;46.03;;;14.23;;
72761;SDS011;60886;55.034;73.150;2023-11-21T00:16:40;27.97;;;10.83;;
72761;SDS011;60886;55.034;73.150;2023-11-21T00:19:42;32.97;;;11.53;;
72761;SDS011;60886;55.034;73.150;2023-11-21T00:22:44;28.58;;;10.25;;
72761;SDS011;60886;55.034;73.150;2023-11-21T00:25:45;32.42;;;11.38;;
72761;SDS011;60886;55.034;73.150;2023-11-21T00:28:47;29.90;;;11.10;;
72761;SDS011;60886;55.034;73.150;2023-11-21T00:31:48;29.30;;;10.15;;
72761;SDS011;60886;55.034;73.150;2023-11-21T00:34:50;24.50;;;9.93;;
72761;SDS011;60886;55.034;73.150;2023-11-21T00:37:51;35.55;;;10.82;;
72761;SDS011;60886;55.034;73.150;2023-11-21T00:40:53;29.87;;;11.40;;
72761;SDS011;60886;55.034;73.150;2023-11-21T00:43:57;28.38;;;10.52;;
72761;SDS011;60886;55.034;73.150;2023-11-21T00:47:00;28.00;;;11.73;;
72761;SDS011;60886;55.034;73.150;2023-11-21T00:50:02;33.53;;;10.88;;
72761;SDS011;60886;55.034;73.150;2023-11-21T00:53:04;26.73;;;9.30;;
72761;SDS011;60886;55.034;73.150;2023-11-21T00:56:09;31.27;;;9.23;;
72761;SDS011;60886;55.034;73.150;2023-11-21T00:59:11;24.58;;;9.90;;
72761;SDS011;60886;55.034;73.150;2023-11-21T01:02:12;27.90;;;8.63;;
72761;SDS011;60886;55.034;73.150;2023-11-21T01:05:14;25.42;;;9.90;;
72761;SDS011;60886;55.034;73.150;2023-11-21T01:08:15;30.10;;;9.83;;
72761;SDS011;60886;55.034;73.150;2023-11-21T01:11:17;21.00;;;7.85;;
72761;SDS011;60886;55.034;73.150;2023-11-21T01:14:19;25.65;;;7.93;;
72761;SDS011;60886;55.034;73.150;2023-11-21T01:17:21;22.60;;;8.17;;
72761;SDS011;60886;55.034;73.150;2023-11-21T01:20:23;28.55;;;10.05;;
72761;SDS011;60886;55.034;73.150;2023-11-21T01:23:25;20.63;;;7.80;;
72761;SDS011;60886;55.034;73.150;2023-11-21T01:26:28;20.30;;;7.33;;
72761;SDS011;60886;55.034;73.150;2023-11-21T01:29:31;24.52;;;10.55;;
72761;SDS011;60886;55.034;73.150;2023-11-21T01:32:33;27.25;;;9.40;;
72761;SDS011;60886;55.034;73.150;2023-11-21T01:35:35;29.90;;;10.40;;
72761;SDS011;60886;55.034;73.150;2023-11-21T01:38:36;22.35;;;7.70;;
72761;SDS011;60886;55.034;73.150;2023-11-21T01:41:38;26.20;;;9.33;;
72761;SDS011;60886;55.034;73.150;2023-11-21T01:44:39;28.55;;;9.65;;
72761;SDS011;60886;55.034;73.150;2023-11-21T01:47:41;22.95;;;7.50;;
72761;SDS011;60886;55.034;73.150;2023-11-21T01:50:45;26.17;;;9.27;;
72761;SDS011;60886;55.034;73.150;2023-11-21T01:53:46;21.50;;;7.43;;
72761;SDS011;60886;55.034;73.150;2023-11-21T01:56:48;30.53;;;9.77;;
72761;SDS011;60886;55.034;73.150;2023-11-21T01:59:49;24.23;;;10.60;;
72761;SDS011;60886;55.034;73.150;2023-11-21T02:02:54;26.25;;;10.00;;
72761;SDS011;60886;55.034;73.150;2023-11-21T02:05:57;31.70;;;10.27;;
72761;SDS011;60886;55.034;73.150;2023-11-21T02:09:01;30.52;;;11.80;;
72761;SDS011;60886;55.034;73.150;2023-11-21T02:12:02;31.63;;;10.30;;
72761;SDS011;60886;55.034;73.150;2023-11-21T02:15:05;31.23;;;11.37;;
72761;SDS011;60886;55.034;73.150;2023-11-21T02:18:17;23.85;;;8.23;;
72761;SDS011;60886;55.034;73.150;2023-11-21T02:21:18;28.23;;;10.33;;
72761;SDS011;60886;55.034;73.150;2023-11-21T02:24:20;25.02;;;10.13;;
72761;SDS011;60886;55.034;73.150;2023-11-21T02:27:23;28.15;;;9.23;;
72761;SDS011;60886;55.034;73.150;2023-11-21T02:30:25;19.97;;;7.80;;
72761;SDS011;60886;55.034;73.150;2023-11-21T02:33:29;28.52;;;8.43;;
72761;SDS011;60886;55.034;73.150;2023-11-21T02:36:30;27.00;;;9.57;;
72761;SDS011;60886;55.034;73.150;2023-11-21T02:39:31;18.70;;;8.55;;
72761;SDS011;60886;55.034;73.150;2023-11-21T02:42:33;21.17;;;8.23;;
72761;SDS011;60886;55.034;73.150;2023-11-21T02:45:35;22.02;;;6.38;;
72761;SDS011;60886;55.034;73.150;2023-11-21T02:48:37;15.98;;;7.32;;
72761;SDS011;60886;55.034;73.150;2023-11-21T02:51:39;21.40;;;7.90;;
72761;SDS011;60886;55.034;73.150;2023-11-21T02:54:40;22.08;;;8.50;;
72761;SDS011;60886;55.034;73.150;2023-11-21T02:57:42;18.80;;;7.27;;
72761;SDS011;60886;55.034;73.150;2023-11-21T03:00:43;18.17;;;5.83;;
72761;SDS011;60886;55.034;73.150;2023-11-21T03:03:45;19.77;;;7.82;;
72761;SDS011;60886;55.034;73.150;2023-11-21T03:06:48;20.58;;;7.93;;
72761;SDS011;60886;55.034;73.150;2023-11-21T03:09:50;21.65;;;7.38;;
72761;SDS011;60886;55.034;73.150;2023-11-21T03:12:51;24.10;;;7.40;;
72761;SDS011;60886;55.034;73.150;2023-11-21T03:15:53;18.88;;;5.95;;
72761;SDS011;60886;55.034;73.150;2023-11-21T03:18:55;22.85;;;7.63;;
72761;SDS011;60886;55.034;73.150;2023-11-21T03:21:56;24.93;;;7.97;;
72761;SDS011;60886;55.034;73.150;2023-11-21T03:24:58;21.52;;;8.02;;
72761;SDS011;60886;55.034;73.150;2023-11-21T03:27:59;23.20;;;8.60;;
72761;SDS011;60886;55.034;73.150;2023-11-21T03:31:01;27.48;;;9.23;;
72761;SDS011;60886;55.034;73.150;2023-11-21T03:34:02;23.75;;;7.60;;
72761;SDS011;60886;55.034;73.150;2023-11-21T03:37:04;22.15;;;8.48;;
72761;SDS011;60886;55.034;73.150;2023-11-21T03:40:06;22.43;;;8.20;;
72761;SDS011;60886;55.034;73.150;2023-11-21T03:43:09;27.45;;;9.50;;
72761;SDS011;60886;55.034;73.150;2023-11-21T03:46:10;31.23;;;9.97;;
72761;SDS011;60886;55.034;73.150;2023-11-21T03:49:13;32.30;;;10.43;;
72761;SDS011;60886;55.034;73.150;2023-11-21T03:52:16;34.37;;;10.83;;
72761;SDS011;60886;55.034;73.150;2023-11-21T03:55:18;22.65;;;10.02;;
72761;SDS011;60886;55.034;73.150;2023-11-21T03:58:19;20.75;;;8.57;;
72761;SDS011;60886;55.034;73.150;2023-11-21T04:01:21;15.07;;;6.27;;
72761;SDS011;60886;55.034;73.150;2023-11-21T04:04:31;16.67;;;5.31;;
72761;SDS011;60886;55.034;73.150;2023-11-21T04:07:32;16.07;;;5.23;;
72761;SDS011;60886;55.034;73.150;2023-11-21T04:10:34;16.48;;;5.85;;
72761;SDS011;60886;55.034;73.150;2023-11-21T04:13:35;16.45;;;6.22;;
72761;SDS011;60886;55.034;73.150;2023-11-21T04:16:37;17.27;;;6.13;;
72761;SDS011;60886;55.034;73.150;2023-11-21T04:19:38;17.43;;;6.60;;
72761;SDS011;60886;55.034;73.150;2023-11-21T04:22:40;17.10;;;6.05;;
72761;SDS011;60886;55.034;73.150;2023-11-21T04:25:42;18.10;;;6.07;;
72761;SDS011;60886;55.034;73.150;2023-11-21T04:28:43;14.90;;;5.60;;
72761;SDS011;60886;55.034;73.150;2023-11-21T04:31:46;24.47;;;7.87;;
72761;SDS011;60886;55.034;73.150;2023-11-21T04:34:49;21.65;;;6.43;;
72761;SDS011;60886;55.034;73.150;2023-11-21T04:37:51;17.30;;;6.87;;
72761;SDS011;60886;55.034;73.150;2023-11-21T04:40:52;21.67;;;7.37;;
72761;SDS011;60886;55.034;73.150;2023-11-21T04:43:54;17.63;;;6.50;;
72761;SDS011;60886;55.034;73.150;2023-11-21T04:46:55;25.45;;;9.50;;
72761;SDS011;60886;55.034;73.150;2023-11-21T04:49:56;19.53;;;7.03;;
72761;SDS011;60886;55.034;73.150;2023-11-21T04:52:58;32.47;;;9.02;;
72761;SDS011;60886;55.034;73.150;2023-11-21T04:55:59;25.20;;;8.23;;
72761;SDS011;60886;55.034;73.150;2023-11-21T04:59:01;30.35;;;9.23;;
72761;SDS011;60886;55.034;73.150;2023-11-21T05:02:03;23.10;;;8.90;;
72761;SDS011;60886;55.034;73.150;2023-11-21T05:05:06;25.30;;;7.97;;
72761;SDS011;60886;55.034;73.150;2023-11-21T05:08:08;21.60;;;7.50;;
72761;SDS011;60886;55.034;73.150;2023-11-21T05:11:10;26.07;;;8.17;;
72761;SDS011;60886;55.034;73.150;2023-11-21T05:14:11;22.60;;;7.68;;
72761;SDS011;60886;55.034;73.150;2023-11-21T05:17:14;21.10;;;7.57;;
72761;SDS011;60886;55.034;73.150;2023-11-21T05:20:15;20.70;;;7.60;;
72761;SDS011;60886;55.034;73.150;2023-11-21T05:23:24;24.08;;;8.52;;
72761;SDS011;60886;55.034;73.150;2023-11-21T05:26:26;22.83;;;7.43;;
72761;SDS011;60886;55.034;73.150;2023-11-21T05:29:31;31.40;;;9.98;;
72761;SDS011;60886;55.034;73.150;2023-11-21T05:32:33;25.90;;;8.37;;
72761;SDS011;60886;55.034;73.150;2023-11-21T05:35:35;24.60;;;7.07;;
72761;SDS011;60886;55.034;73.150;2023-11-21T05:38:36;22.85;;;7.22;;
72761;SDS011;60886;55.034;73.150;2023-11-21T05:41:38;23.73;;;8.07;;
72761;SDS011;60886;55.034;73.150;2023-11-21T05:44:41;20.63;;;5.63;;
72761;SDS011;60886;55.034;73.150;2023-11-21T05:47:44;19.17;;;6.20;;
72761;SDS011;60886;55.034;73.150;2023-11-21T05:50:47;15.02;;;5.65;;
72761;SDS011;60886;55.034;73.150;2023-11-21T05:53:50;15.63;;;5.70;;
72761;SDS011;60886;55.034;73.150;2023-11-21T05:56:52;20.60;;;5.87;;
72761;SDS011;60886;55.034;73.150;2023-11-21T05:59:53;17.30;;;6.63;;
72761;SDS011;60886;55.034;73.150;2023-11-21T06:02:55;16.13;;;6.25;;
72761;SDS011;60886;55.034;73.150;2023-11-21T06:05:58;16.07;;;6.23;;
72761;SDS011;60886;55.034;73.150;2023-11-21T06:08:59;21.48;;;6.35;;
72761;SDS011;60886;55.034;73.150;2023-11-21T06:12:01;19.95;;;6.32;;
72761;SDS011;60886;55.034;73.150;2023-11-21T06:15:04;15.32;;;6.30;;
72761;SDS011;60886;55.034;73.150;2023-11-21T06:18:08;20.13;;;7.10;;
72761;SDS011;60886;55.034;73.150;2023-11-21T06:21:11;18.90;;;5.40;;
72761;SDS011;60886;55.034;73.150;2023-11-21T06:24:13;22.75;;;6.28;;
72761;SDS011;60886;55.034;73.150;2023-11-21T06:27:16;14.68;;;5.10;;
72761;SDS011;60886;55.034;73.150;2023-11-21T06:30:18;16.73;;;6.00;;
72761;SDS011;60886;55.034;73.150;2023-11-21T06:33:20;19.45;;;6.85;;
72761;SDS011;60886;55.034;73.150;2023-11-21T06:36:22;16.97;;;6.07;;
72761;SDS011;60886;55.034;73.150;2023-11-21T06:39:31;19.31;;;7.01;;
72761;SDS011;60886;55.034;73.150;2023-11-21T06:42:33;17.65;;;5.50;;
72761;SDS011;60886;55.034;73.150;2023-11-21T06:45:35;22.57;;;5.40;;
72761;SDS011;60886;55.034;73.150;2023-11-21T06:48:36;13.35;;;5.65;;
72761;SDS011;60886;55.034;73.150;2023-11-21T06:51:39;16.30;;;5.10;;
72761;SDS011;60886;55.034;73.150;2023-11-21T06:54:40;15.43;;;4.93;;
72761;SDS011;60886;55.034;73.150;2023-11-21T06:57:42;13.50;;;4.90;;
72761;SDS011;60886;55.034;73.150;2023-11-21T07:00:44;12.60;;;4.50;;
72761;SDS011;60886;55.034;73.150;2023-11-21T07:03:47;14.23;;;5.03;;
72761;SDS011;60886;55.034;73.150;2023-11-21T07:06:49;13.90;;;4.07;;
72761;SDS011;60886;55.034;73.150;2023-11-21T07:09:50;14.73;;;4.97;;
72761;SDS011;60886;55.034;73.150;2023-11-21T07:12:52;15.70;;;4.75;;
72761;SDS011;60886;55.034;73.150;2023-11-21T07:15:54;13.95;;;5.35;;
72761;SDS011;60886;55.034;73.150;2023-11-21T07:18:55;16.42;;;6.82;;
72761;SDS011;60886;55.034;73.150;2023-11-21T07:21:57;15.40;;;5.00;;
72761;SDS011;60886;55.034;73.150;2023-11-21T07:24:58;13.60;;;4.85;;
72761;SDS011;60886;55.034;73.150;2023-11-21T07:28:00;17.00;;;3.95;;
72761;SDS011;60886;55.034;73.150;2023-11-21T07:31:02;11.37;;;4.13;;
72761;SDS011;60886;55.034;73.150;2023-11-21T07:34:04;9.55;;;3.58;;
72761;SDS011;60886;55.034;73.150;2023-11-21T07:37:06;12.83;;;4.27;;
72761;SDS011;60886;55.034;73.150;2023-11-21T07:40:07;18.58;;;5.38;;
72761;SDS011;60886;55.034;73.150;2023-11-21T07:43:09;10.07;;;3.58;;
72761;SDS011;60886;55.034;73.150;2023-11-21T07:46:11;9.33;;;3.40;;
72761;SDS011;60886;55.034;73.150;2023-11-21T07:49:14;9.63;;;3.53;;
72761;SDS011;60886;55.034;73.150;2023-11-21T07:52:21;9.80;;;4.05;;
72761;SDS011;60886;55.034;73.150;2023-11-21T07:55:24;18.23;;;6.77;;
72761;SDS011;60886;55.034;73.150;2023-11-21T07:58:25;9.77;;;3.08;;
72761;SDS011;60886;55.034;73.150;2023-11-21T08:01:27;11.25;;;4.45;;
72761;SDS011;60886;55.034;73.150;2023-11-21T08:04:31;11.55;;;3.15;;
72761;SDS011;60886;55.034;73.150;2023-11-21T08:07:33;14.18;;;3.38;;
72761;SDS011;60886;55.034;73.150;2023-11-21T08:10:35;9.98;;;3.42;;
72761;SDS011;60886;55.034;73.150;2023-11-21T08:13:36;13.60;;;4.05;;
72761;SDS011;60886;55.034;73.150;2023-11-21T08:16:38;11.45;;;3.60;;
72761;SDS011;60886;55.034;73.150;2023-11-21T08:19:39;10.87;;;3.37;;
72761;SDS011;60886;55.034;73.150;2023-11-21T08:22:41;11.32;;;3.70;;
72761;SDS011;60886;55.034;73.150;2023-11-21T08:25:43;10.60;;;4.43;;
72761;SDS011;60886;55.034;73.150;2023-11-21T08:28:49;9.68;;;3.25;;
72761;SDS011;60886;55.034;73.150;2023-11-21T08:31:50;11.47;;;3.67;;
72761;SDS011;60886;55.034;73.150;2023-11-21T08:34:52;11.13;;;3.88;;
72761;SDS011;60886;55.034;73.150;2023-11-21T08:37:53;16.00;;;4.73;;
72761;SDS011;60886;55.034;73.150;2023-11-21T08:40:55;12.13;;;4.07;;
72761;SDS011;60886;55.034;73.150;2023-11-21T08:43:57;11.95;;;3.80;;
72761;SDS011;60886;55.034;73.150;2023-11-21T08:46:59;14.50;;;4.07;;
72761;SDS011;60886;55.034;73.150;2023-11-21T08:50:01;9.87;;;3.93;;
72761;SDS011;60886;55.034;73.150;2023-11-21T08:53:04;11.85;;;3.88;;
72761;SDS011;60886;55.034;73.150;2023-11-21T08:56:06;21.52;;;7.72;;
72761;SDS011;60886;55.034;73.150;2023-11-21T08:59:10;17.67;;;4.93;;
72761;SDS011;60886;55.034;73.150;2023-11-21T09:02:11;12.68;;;4.45;;
72761;SDS011;60886;55.034;73.150;2023-11-21T09:05:13;12.85;;;3.85;;
72761;SDS011;60886;55.034;73.150;2023-11-21T09:08:15;20.13;;;6.90;;
72761;SDS011;60886;55.034;73.150;2023-11-21T09:11:32;20.00;;;7.20;;
72761;SDS011;60886;55.034;73.150;2023-11-21T09:14:34;12.52;;;4.87;;
72761;SDS011;60886;55.034;73.150;2023-11-21T09:17:36;14.70;;;5.78;;
72761;SDS011;60886;55.034;73.150;2023-11-21T09:20:38;9.65;;;3.83;;
72761;SDS011;60886;55.034;73.150;2023-11-21T09:23:39;9.65;;;3.30;;
72761;SDS011;60886;55.034;73.150;2023-11-21T09:26:41;8.93;;;3.28;;
72761;SDS011;60886;55.034;73.150;2023-11-21T09:29:42;11.47;;;3.73;;
72761;SDS011;60886;55.034;73.150;2023-11-21T09:32:44;9.00;;;2.70;;
72761;SDS011;60886;55.034;73.150;2023-11-21T09:35:46;11.83;;;4.50;;
72761;SDS011;60886;55.034;73.150;2023-11-21T09:38:48;12.65;;;3.95;;
72761;SDS011;60886;55.034;73.150;2023-11-21T09:41:51;10.53;;;4.13;;
72761;SDS011;60886;55.034;73.150;2023-11-21T09:45:07;10.57;;;4.22;;
72761;SDS011;60886;55.034;73.150;2023-11-21T09:48:18;11.02;;;4.07;;
72761;SDS011;60886;55.034;73.150;2023-11-21T09:51:21;9.45;;;3.30;;
72761;SDS011;60886;55.034;73.150;2023-11-21T09:54:31;18.77;;;4.32;;
72761;SDS011;60886;55.034;73.150;2023-11-21T09:57:33;12.82;;;4.10;;
72761;SDS011;60886;55.034;73.150;2023-11-21T10:00:34;16.77;;;4.97;;
72761;SDS011;60886;55.034;73.150;2023-11-21T10:03:36;17.87;;;6.13;;
72761;SDS011;60886;55.034;73.150;2023-11-21T10:06:39;11.68;;;5.07;;
72761;SDS011;60886;55.034;73.150;2023-11-21T10:09:46;14.17;;;6.67;;
72761;SDS011;60886;55.034;73.150;2023-11-21T10:12:51;11.80;;;5.15;;
72761;SDS011;60886;55.034;73.150;2023-11-21T10:15:57;10.93;;;3.97;;
72761;SDS011;60886;55.034;73.150;2023-11-21T10:18:59;14.50;;;4.90;;
72761;SDS011;60886;55.034;73.150;2023-11-21T10:22:01;14.25;;;6.05;;
72761;SDS011;60886;55.034;73.150;2023-11-21T10:25:05;12.85;;;5.28;;
72761;SDS011;60886;55.034;73.150;2023-11-21T10:28:09;9.85;;;4.32;;
72761;SDS011;60886;55.034;73.150;2023-11-21T10:31:11;13.83;;;5.67;;
72761;SDS011;60886;55.034;73.150;2023-11-21T10:37:16;14.10;;;5.80;;
72761;SDS011;60886;55.034;73.150;2023-11-21T10:40:18;12.10;;;4.65;;
72761;SDS011;60886;55.034;73.150;2023-11-21T10:43:24;16.85;;;6.15;;
72761;SDS011;60886;55.034;73.150;2023-11-21T10:46:26;12.25;;;4.15;;
72761;SDS011;60886;55.034;73.150;2023-11-21T10:49:31;8.90;;;3.38;;
72761;SDS011;60886;55.034;73.150;2023-11-21T10:52:32;9.65;;;3.33;;
72761;SDS011;60886;55.034;73.150;2023-11-21T10:55:37;12.48;;;3.75;;
72761;SDS011;60886;55.034;73.150;2023-11-21T10:58:38;14.18;;;5.15;;
72761;SDS011;60886;55.034;73.150;2023-11-21T11:01:42;13.05;;;4.25;;
72761;SDS011;60886;55.034;73.150;2023-11-21T11:04:48;11.53;;;4.33;;
72761;SDS011;60886;55.034;73.150;2023-11-21T11:07:50;9.32;;;3.15;;
72761;SDS011;60886;55.034;73.150;2023-11-21T11:11:10;9.03;;;3.13;;
72761;SDS011;60886;55.034;73.150;2023-11-21T11:14:13;12.02;;;4.75;;
72761;SDS011;60886;55.034;73.150;2023-11-21T11:17:15;10.33;;;4.03;;
72761;SDS011;60886;55.034;73.150;2023-11-21T11:20:17;14.15;;;3.85;;
72761;SDS011;60886;55.034;73.150;2023-11-21T11:23:27;11.38;;;4.22;;
72761;SDS011;60886;55.034;73.150;2023-11-21T11:26:47;7.30;;;2.60;;
72761;SDS011;60886;55.034;73.150;2023-11-21T11:30:21;8.93;;;3.63;;
72761;SDS011;60886;55.034;73.150;2023-11-21T11:34:08;10.52;;;3.58;;
72761;SDS011;60886;55.034;73.150;2023-11-21T11:37:14;9.33;;;3.30;;
72761;SDS011;60886;55.034;73.150;2023-11-21T11:40:16;8.68;;;3.17;;
72761;SDS011;60886;55.034;73.150;2023-11-21T11:43:26;9.88;;;3.42;;
72761;SDS011;60886;55.034;73.150;2023-11-21T11:46:44;7.77;;;2.60;;
72761;SDS011;60886;55.034;73.150;2023-11-21T11:50:21;11.07;;;3.80;;
72761;SDS011;60886;55.034;73.150;2023-11-21T11:53:20;11.35;;;2.90;;
72761;SDS011;60886;55.034;73.150;2023-11-21T11:59:31;5.93;;;1.90;;
72761;SDS011;60886;55.034;73.150;2023-11-21T12:03:27;9.27;;;3.22;;
72761;SDS011;60886;55.034;73.150;2023-11-21T12:06:33;6.60;;;2.55;;
72761;SDS011;60886;55.034;73.150;2023-11-21T12:09:48;7.87;;;1.83;;
72761;SDS011;60886;55.034;73.150;2023-11-21T12:12:50;6.95;;;2.45;;
72761;SDS011;60886;55.034;73.150;2023-11-21T12:15:53;6.90;;;2.37;;
72761;SDS011;60886;55.034;73.150;2023-11-21T12:18:55;5.60;;;1.77;;
72761;SDS011;60886;55.034;73.150;2023-11-21T12:21:57;7.00;;;2.55;;
72761;SDS011;60886;55.034;73.150;2023-11-21T12:25:00;7.72;;;2.08;;
72761;SDS011;60886;55.034;73.150;2023-11-21T12:28:01;5.47;;;1.40;;
72761;SDS011;60886;55.034;73.150;2023-11-21T12:31:04;6.32;;;1.85;;
72761;SDS011;60886;55.034;73.150;2023-11-21T12:34:07;6.72;;;2.38;;
72761;SDS011;60886;55.034;73.150;2023-11-21T12:37:17;6.32;;;1.85;;
72761;SDS011;60886;55.034;73.150;2023-11-21T12:40:29;8.53;;;2.73;;
72761;SDS011;60886;55.034;73.150;2023-11-21T12:43:31;8.52;;;2.85;;
72761;SDS011;60886;55.034;73.150;2023-11-21T12:46:32;6.63;;;2.10;;
72761;SDS011;60886;55.034;73.150;2023-11-21T12:49:35;7.60;;;2.57;;
72761;SDS011;60886;55.034;73.150;2023-11-21T12:52:36;8.98;;;2.55;;
72761;SDS011;60886;55.034;73.150;2023-11-21T12:55:40;5.13;;;1.80;;
72761;SDS011;60886;55.034;73.150;2023-11-21T12:58:44;9.75;;;2.33;;
72761;SDS011;60886;55.034;73.150;2023-11-21T13:01:57;8.10;;;2.15;;
72761;SDS011;60886;55.034;73.150;2023-11-21T13:05:00;6.57;;;2.13;;
72761;SDS011;60886;55.034;73.150;2023-11-21T13:08:07;9.98;;;2.53;;
72761;SDS011;60886;55.034;73.150;2023-11-21T13:11:11;8.70;;;2.17;;
72761;SDS011;60886;55.034;73.150;2023-11-21T13:14:15;8.60;;;2.28;;
72761;SDS011;60886;55.034;73.150;2023-11-21T13:17:30;9.73;;;2.50;;
72761;SDS011;60886;55.034;73.150;2023-11-21T13:20:43;9.07;;;2.27;;
72761;SDS011;60886;55.034;73.150;2023-11-21T13:23:45;8.23;;;2.28;;
72761;SDS011;60886;55.034;73.150;2023-11-21T13:26:49;8.83;;;2.57;;
72761;SDS011;60886;55.034;73.150;2023-11-21T13:29:52;6.38;;;2.10;;
72761;SDS011;60886;55.034;73.150;2023-11-21T13:32:53;7.55;;;2.13;;
72761;SDS011;60886;55.034;73.150;2023-11-21T13:35:58;9.20;;;2.87;;
72761;SDS011;60886;55.034;73.150;2023-11-21T13:39:31;7.97;;;2.61;;
72761;SDS011;60886;55.034;73.150;2023-11-21T13:42:33;9.43;;;2.70;;
72761;SDS011;60886;55.034;73.150;2023-11-21T13:45:34;7.97;;;2.47;;
72761;SDS011;60886;55.034;73.150;2023-11-21T13:48:37;5.78;;;1.88;;
72761;SDS011;60886;55.034;73.150;2023-11-21T13:51:43;6.93;;;2.10;;
72761;SDS011;60886;55.034;73.150;2023-11-21T13:54:51;12.50;;;2.55;;
72761;SDS011;60886;55.034;73.150;2023-11-21T13:57:53;8.63;;;2.85;;
72761;SDS011;60886;55.034;73.150;2023-11-21T14:00:54;7.85;;;2.25;;
72761;SDS011;60886;55.034;73.150;2023-11-21T14:03:59;6.88;;;2.22;;
72761;SDS011;60886;55.034;73.150;2023-11-21T14:07:17;7.28;;;2.08;;
72761;SDS011;60886;55.034;73.150;2023-11-21T14:10:27;12.57;;;3.90;;
72761;SDS011;60886;55.034;73.150;2023-11-21T14:13:37;8.10;;;2.83;;
72761;SDS011;60886;55.034;73.150;2023-11-21T14:16:46;10.10;;;2.77;;
72761;SDS011;60886;55.034;73.150;2023-11-21T14:19:49;7.63;;;2.63;;
72761;SDS011;60886;55.034;73.150;2023-11-21T14:22:51;9.52;;;2.90;;
72761;SDS011;60886;55.034;73.150;2023-11-21T14:25:53;8.87;;;2.93;;
72761;SDS011;60886;55.034;73.150;2023-11-21T14:28:54;6.33;;;1.83;;
72761;SDS011;60886;55.034;73.150;2023-11-21T14:31:58;8.50;;;3.22;;
72761;SDS011;60886;55.034;73.150;2023-11-21T14:34:59;6.75;;;1.95;;
72761;SDS011;60886;55.034;73.150;2023-11-21T14:38:01;8.20;;;3.30;;
72761;SDS011;60886;55.034;73.150;2023-11-21T14:41:06;11.10;;;3.00;;
72761;SDS011;60886;55.034;73.150;2023-11-21T14:44:12;6.50;;;2.10;;
72761;SDS011;60886;55.034;73.150;2023-11-21T14:47:15;5.43;;;1.77;;
72761;SDS011;60886;55.034;73.150;2023-11-21T14:50:17;5.70;;;1.60;;
72761;SDS011;60886;55.034;73.150;2023-11-21T14:53:41;7.20;;;2.40;;
72761;SDS011;60886;55.034;73.150;2023-11-21T14:56:55;11.85;;;2.67;;
72761;SDS011;60886;55.034;73.150;2023-11-21T14:59:56;7.60;;;2.40;;
72761;SDS011;60886;55.034;73.150;2023-11-21T15:02:59;8.50;;;2.42;;
72761;SDS011;60886;55.034;73.150;2023-11-21T15:06:01;7.57;;;1.87;;
72761;SDS011;60886;55.034;73.150;2023-11-21T15:09:31;5.40;;;1.67;;
72761;SDS011;60886;55.034;73.150;2023-11-21T15:12:32;5.30;;;1.98;;
72761;SDS011;60886;55.034;73.150;2023-11-21T15:15:42;5.77;;;1.87;;
72761;SDS011;60886;55.034;73.150;2023-11-21T15:18:43;8.43;;;2.55;;
72761;SDS011;60886;55.034;73.150;2023-11-21T15:21:45;8.17;;;1.70;;
72761;SDS011;60886;55.034;73.150;2023-11-21T15:24:47;8.90;;;2.55;;
72761;SDS011;60886;55.034;73.150;2023-11-21T15:27:51;8.73;;;3.15;;
72761;SDS011;60886;55.034;73.150;2023-11-21T15:30:54;9.48;;;3.00;;
72761;SDS011;60886;55.034;73.150;2023-11-21T15:33:58;9.63;;;3.40;;
72761;SDS011;60886;55.034;73.150;2023-11-21T15:37:02;7.15;;;2.30;;
72761;SDS011;60886;55.034;73.150;2023-11-21T15:40:04;6.77;;;2.30;;
72761;SDS011;60886;55.034;73.150;2023-11-21T15:43:07;6.38;;;2.03;;
72761;SDS011;60886;55.034;73.150;2023-11-21T15:46:09;8.53;;;2.80;;
72761;SDS011;60886;55.034;73.150;2023-11-21T15:49:10;7.90;;;2.65;;
72761;SDS011;60886;55.034;73.150;2023-11-21T15:52:18;10.63;;;3.63;;
72761;SDS011;60886;55.034;73.150;2023-11-21T15:55:20;6.73;;;1.83;;
72761;SDS011;60886;55.034;73.150;2023-11-21T15:58:21;9.50;;;3.03;;
72761;SDS011;60886;55.034;73.150;2023-11-21T16:01:23;10.75;;;3.67;;
72761;SDS011;60886;55.034;73.150;2023-11-21T16:04:30;7.55;;;2.25;;
72761;SDS011;60886;55.034;73.150;2023-11-21T16:07:33;9.15;;;2.47;;
72761;SDS011;60886;55.034;73.150;2023-11-21T16:10:36;10.60;;;2.53;;
72761;SDS011;60886;55.034;73.150;2023-11-21T16:17:21;9.03;;;2.47;;
72761;SDS011;60886;55.034;73.150;2023-11-21T16:20:38;8.40;;;2.83;;
72761;SDS011;60886;55.034;73.150;2023-11-21T16:23:40;11.15;;;2.78;;
72761;SDS011;60886;55.034;73.150;2023-11-21T16:27:08;9.45;;;2.58;;
72761;SDS011;60886;55.034;73.150;2023-11-21T16:30:11;7.20;;;2.63;;
72761;SDS011;60886;55.034;73.150;2023-11-21T16:36:54;8.40;;;2.70;;
72761;SDS011;60886;55.034;73.150;2023-11-21T16:39:59;6.75;;;2.03;;
72761;SDS011;60886;55.034;73.150;2023-11-21T16:43:01;7.72;;;2.33;;
72761;SDS011;60886;55.034;73.150;2023-11-21T16:46:03;10.57;;;3.57;;
72761;SDS011;60886;55.034;73.150;2023-11-21T16:49:05;8.05;;;2.13;;
72761;SDS011;60886;55.034;73.150;2023-11-21T16:52:10;5.97;;;1.50;;
72761;SDS011;60886;55.034;73.150;2023-11-21T16:55:14;10.23;;;2.50;;
72761;SDS011;60886;55.034;73.150;2023-11-21T16:58:20;9.65;;;2.35;;
72761;SDS011;60886;55.034;73.150;2023-11-21T17:01:25;6.55;;;1.90;;
72761;SDS011;60886;55.034;73.150;2023-11-21T17:04:31;6.47;;;2.08;;
72761;SDS011;60886;55.034;73.150;2023-11-21T17:07:36;7.03;;;2.15;;
72761;SDS011;60886;55.034;73.150;2023-11-21T17:10:38;5.83;;;1.90;;
72761;SDS011;60886;55.034;73.150;2023-11-21T17:14:24;7.32;;;2.03;;
72761;SDS011;60886;55.034;73.150;2023-11-21T17:17:33;6.25;;;1.83;;
72761;SDS011;60886;55.034;73.150;2023-11-21T17:20:45;5.30;;;1.55;;
72761;SDS011;60886;55.034;73.150;2023-11-21T17:23:52;6.40;;;1.88;;
72761;SDS011;60886;55.034;73.150;2023-11-21T17:26:58;8.10;;;2.35;;
72761;SDS011;60886;55.034;73.150;2023-11-21T17:30:00;7.30;;;2.10;;
72761;SDS011;60886;55.034;73.150;2023-11-21T17:33:07;7.05;;;1.60;;
72761;SDS011;60886;55.034;73.150;2023-11-21T17:36:27;5.83;;;1.63;;
72761;SDS011;60886;55.034;73.150;2023-11-21T17:39:32;7.38;;;1.58;;
72761;SDS011;60886;55.034;73.150;2023-11-21T17:42:36;7.00;;;2.03;;
72761;SDS011;60886;55.034;73.150;2023-11-21T17:45:43;5.30;;;1.40;;
72761;SDS011;60886;55.034;73.150;2023-11-21T17:48:48;10.27;;;2.10;;
72761;SDS011;60886;55.034;73.150;2023-11-21T17:51:56;7.53;;;1.63;;
72761;SDS011;60886;55.034;73.150;2023-11-21T17:54:57;9.20;;;1.80;;
72761;SDS011;60886;55.034;73.150;2023-11-21T17:57:59;8.60;;;2.55;;
72761;SDS011;60886;55.034;73.150;2023-11-21T18:01:11;7.50;;;2.45;;
72761;SDS011;60886;55.034;73.150;2023-11-21T18:04:30;6.71;;;1.84;;
72761;SDS011;60886;55.034;73.150;2023-11-21T18:07:32;5.80;;;1.88;;
72761;SDS011;60886;55.034;73.150;2023-11-21T18:10:35;8.02;;;1.83;;
72761;SDS011;60886;55.034;73.150;2023-11-21T18:13:37;5.90;;;1.95;;
72761;SDS011;60886;55.034;73.150;2023-11-21T18:16:41;6.38;;;2.03;;